createdAt,value
2018-02-03T00:02:22.171Z,93995.52
2018-02-03T00:04:49.753Z,93986.36
2018-02-03T00:07:17.388Z,93986.09
2018-02-03T00:09:45.334Z,94010.88
2018-02-03T00:12:12.886Z,93997.26
2018-02-03T00:14:40.411Z,93985.13
2018-02-03T00:17:07.929Z,93994.28
2018-02-03T00:19:35.522Z,93966.00
2018-02-03T00:22:03.034Z,93968.66
2018-02-03T00:24:30.547Z,93973.11
2018-02-03T00:26:58.208Z,93937.70
2018-02-03T00:29:25.788Z,93977.36
2018-02-03T00:31:53.374Z,93963.13
2018-02-03T00:34:20.899Z,93957.08
2018-02-03T00:36:48.497Z,93973.73
2018-02-03T00:39:16.085Z,93969.08
2018-02-03T00:41:43.655Z,93935.82
2018-02-03T00:44:11.176Z,93947.48
2018-02-03T00:46:38.758Z,93965.69
2018-02-03T00:49:06.349Z,93959.02
2018-02-03T00:51:33.957Z,93983.58
2018-02-03T00:54:01.477Z,93967.06
2018-02-03T00:56:30.184Z,93958.01
2018-02-03T00:58:57.715Z,93971.23
2018-02-03T01:01:25.238Z,93953.19
2018-02-03T01:03:52.830Z,93975.53
2018-02-03T01:06:20.433Z,93961.17
2018-02-03T01:08:48.073Z,93975.36
2018-02-03T01:11:15.665Z,93934.97
2018-02-03T01:13:43.248Z,93959.26
2018-02-03T01:16:10.888Z,93949.34
2018-02-03T01:18:38.500Z,93899.90
2018-02-03T01:21:06.145Z,93912.20
2018-02-03T01:23:33.737Z,93912.79
2018-02-03T01:26:01.340Z,93907.75
2018-02-03T01:28:28.976Z,93865.34
2018-02-03T01:30:56.574Z,93863.33
2018-02-03T01:33:24.157Z,93870.66
2018-02-03T01:35:51.804Z,93881.15
2018-02-03T01:38:19.385Z,93885.81
2018-02-03T01:40:46.968Z,93881.70
2018-02-03T01:43:14.543Z,93856.02
2018-02-03T01:45:42.139Z,93882.84
2018-02-03T01:48:09.785Z,93899.08
2018-02-03T01:50:37.298Z,93896.33
2018-02-03T01:53:04.889Z,93853.27
2018-02-03T01:55:32.468Z,93883.61
2018-02-03T01:58:00.129Z,93887.96
2018-02-03T02:00:27.711Z,93832.28
2018-02-03T02:02:55.343Z,93829.86
2018-02-03T02:05:22.869Z,93835.45
2018-02-03T02:07:50.505Z,93855.89
2018-02-03T02:10:18.076Z,93840.05
2018-02-03T02:12:45.591Z,93856.52
2018-02-03T02:15:13.272Z,93825.00
2018-02-03T02:17:40.961Z,93810.04
2018-02-03T02:20:08.483Z,93860.00
2018-02-03T02:22:36.059Z,93839.97
2018-02-03T02:25:03.682Z,93887.64
2018-02-03T02:27:31.277Z,93826.62
2018-02-03T02:29:58.803Z,93830.62
2018-02-03T02:32:26.394Z,93838.70
2018-02-03T02:34:53.906Z,93866.47
2018-02-03T02:37:21.433Z,93840.92
2018-02-03T02:39:49.120Z,93861.15
2018-02-03T02:42:16.808Z,93814.77
2018-02-03T02:44:44.388Z,93794.81
2018-02-03T02:47:11.984Z,93798.74
2018-02-03T02:49:39.511Z,93834.93
2018-02-03T02:52:07.173Z,93817.30
2018-02-03T02:54:34.707Z,93824.61
2018-02-03T02:57:02.349Z,93807.62
2018-02-03T02:59:29.937Z,93794.08
2018-02-03T03:01:57.519Z,93783.16
2018-02-03T03:04:25.042Z,93780.52
2018-02-03T03:06:52.619Z,93794.41
2018-02-03T03:09:20.239Z,93820.03
2018-02-03T03:11:47.819Z,93820.95
2018-02-03T03:14:15.335Z,93812.86
2018-02-03T03:16:42.929Z,93811.31
2018-02-03T03:19:10.523Z,93807.55
2018-02-03T03:21:38.058Z,93810.20
2018-02-03T03:24:05.704Z,93820.44
2018-02-03T03:26:33.284Z,93814.28
2018-02-03T03:29:01.028Z,93797.64
2018-02-03T03:31:28.600Z,93805.94
2018-02-03T03:33:56.245Z,93798.44
2018-02-03T03:36:23.771Z,93803.05
2018-02-03T03:38:51.367Z,93807.95
2018-02-03T03:41:18.892Z,93802.42
2018-02-03T03:43:46.410Z,93794.24
2018-02-03T03:46:13.988Z,93776.88
2018-02-03T03:48:41.582Z,93787.63
2018-02-03T03:51:09.185Z,93796.70
2018-02-03T03:53:36.840Z,93793.87
2018-02-03T03:56:04.369Z,93769.73
2018-02-03T03:58:31.972Z,93773.25
2018-02-03T04:00:59.547Z,93772.84
2018-02-03T04:03:27.083Z,93767.70
2018-02-03T04:05:54.664Z,93777.23
2018-02-03T04:08:22.273Z,93741.62
2018-02-03T04:10:49.909Z,93770.26
2018-02-03T04:13:17.422Z,93793.53
2018-02-03T04:15:45.095Z,93750.80
2018-02-03T04:18:12.688Z,93793.64
2018-02-03T04:20:40.273Z,93763.66
2018-02-03T04:23:07.856Z,93785.27
2018-02-03T04:25:35.439Z,93730.50
2018-02-03T04:28:03.092Z,93732.56
2018-02-03T04:30:30.689Z,93712.36
2018-02-03T04:32:58.368Z,93760.44
2018-02-03T04:35:25.948Z,93749.10
2018-02-03T04:37:53.604Z,93748.14
2018-02-03T04:40:21.186Z,93753.00
2018-02-03T04:42:48.703Z,93760.42
2018-02-03T04:45:16.300Z,93742.25
2018-02-03T04:47:43.923Z,93722.82
2018-02-03T04:50:11.564Z,93734.70
2018-02-03T04:52:39.204Z,93751.62
2018-02-03T04:55:06.843Z,93754.28
2018-02-03T04:57:34.420Z,93738.23
2018-02-03T05:00:01.951Z,93727.17
2018-02-03T05:02:29.531Z,93729.82
2018-02-03T05:04:57.119Z,93747.78
2018-02-03T05:07:24.752Z,93768.63
2018-02-03T05:09:52.343Z,93751.09
2018-02-03T05:12:20.056Z,93740.33
2018-02-03T05:14:47.573Z,93730.09
2018-02-03T05:17:15.230Z,93734.39
2018-02-03T05:19:42.912Z,93735.41
2018-02-03T05:22:10.495Z,93723.09
2018-02-03T05:24:38.080Z,93725.38
2018-02-03T05:27:05.728Z,93733.62
2018-02-03T05:29:33.322Z,93720.86
2018-02-03T05:32:00.839Z,93738.25
2018-02-03T05:34:28.473Z,93739.16
2018-02-03T05:36:56.112Z,93726.77
2018-02-03T05:39:23.720Z,93710.52
2018-02-03T05:41:51.305Z,93706.67
2018-02-03T05:44:18.925Z,93710.05
2018-02-03T05:46:46.474Z,93709.65
2018-02-03T05:49:14.124Z,93723.73
2018-02-03T05:51:41.744Z,93723.64
2018-02-03T05:54:09.380Z,93700.58
2018-02-03T05:56:36.981Z,93729.28
2018-02-03T05:59:04.563Z,93735.30
2018-02-03T06:01:32.140Z,93721.34
2018-02-03T06:03:59.783Z,93725.65
2018-02-03T06:06:27.369Z,93728.30
2018-02-03T06:08:55.161Z,93714.53
2018-02-03T06:11:22.769Z,93746.25
2018-02-03T06:13:50.280Z,93749.91
2018-02-03T06:16:17.857Z,93762.30
2018-02-03T06:18:45.375Z,93748.88
2018-02-03T06:21:12.973Z,93754.27
2018-02-03T06:23:40.632Z,93726.58
2018-02-03T06:26:08.281Z,93755.23
2018-02-03T06:28:35.936Z,93742.50
2018-02-03T06:31:03.516Z,93732.38
2018-02-03T06:33:31.398Z,93748.70
2018-02-03T06:35:59.076Z,93720.94
2018-02-03T06:38:26.717Z,93720.77
2018-02-03T06:40:54.242Z,93729.02
2018-02-03T06:43:21.880Z,93728.91
2018-02-03T06:45:49.513Z,93720.25
2018-02-03T06:48:17.186Z,93730.30
2018-02-03T06:50:45.682Z,93729.69
2018-02-03T06:53:16.446Z,93700.77
2018-02-03T06:55:44.167Z,93714.03
2018-02-03T06:58:11.821Z,93708.62
2018-02-03T07:00:39.474Z,93713.90
2018-02-03T07:03:07.129Z,93682.19
2018-02-03T07:05:34.976Z,93685.22
2018-02-03T07:08:02.495Z,93663.83
2018-02-03T07:10:30.441Z,93677.10
2018-02-03T07:12:58.208Z,93688.95
2018-02-03T07:15:25.929Z,93716.61
2018-02-03T07:17:53.596Z,93710.38
2018-02-03T07:20:21.177Z,93711.41
2018-02-03T07:22:48.864Z,93684.17
2018-02-03T07:25:16.641Z,93697.87
2018-02-03T07:27:44.288Z,93676.34
2018-02-03T07:30:11.961Z,93667.18
2018-02-03T07:32:39.666Z,93687.27
2018-02-03T07:35:07.263Z,93672.81
2018-02-03T07:37:34.921Z,93684.30
2018-02-03T07:40:02.538Z,93649.77
2018-02-03T07:42:30.182Z,93664.63
2018-02-03T07:44:57.927Z,93682.20
2018-02-03T07:47:26.354Z,93655.84
2018-02-03T07:49:54.006Z,93644.50
2018-02-03T07:52:21.671Z,93647.15
2018-02-03T07:54:49.319Z,93640.05
2018-02-03T07:57:16.972Z,93653.75
2018-02-03T07:59:44.573Z,93642.88
2018-02-03T08:02:12.278Z,93663.35
2018-02-03T08:04:39.944Z,93667.16
2018-02-03T08:07:07.485Z,93635.30
2018-02-03T08:09:35.217Z,93617.00
2018-02-03T08:12:02.807Z,93641.97
2018-02-03T08:14:30.420Z,93641.67
2018-02-03T08:16:58.530Z,93608.22
2018-02-03T08:19:26.124Z,93583.31
2018-02-03T08:21:53.773Z,93592.84
2018-02-03T08:24:21.437Z,93592.67
2018-02-03T08:26:48.960Z,93620.16
2018-02-03T08:29:16.488Z,93600.29
2018-02-03T08:31:44.116Z,93599.71
2018-02-03T08:34:11.746Z,93564.95
2018-02-03T08:36:39.339Z,93579.25
2018-02-03T08:39:07.034Z,93575.98
2018-02-03T08:41:34.674Z,93569.20
2018-02-03T08:44:02.329Z,93594.75
2018-02-03T08:46:29.960Z,93603.49
2018-02-03T08:48:57.552Z,93576.45
2018-02-03T08:51:25.076Z,93582.13
2018-02-03T08:53:52.766Z,93560.70
2018-02-03T08:56:20.406Z,93598.86
2018-02-03T08:58:47.994Z,93596.97
2018-02-03T09:01:15.645Z,93600.29
2018-02-03T09:03:43.289Z,93596.57
2018-02-03T09:06:11.120Z,93585.22
2018-02-03T09:08:38.738Z,93539.11
2018-02-03T09:11:06.444Z,93571.95
2018-02-03T09:13:34.100Z,93567.56
2018-02-03T09:16:01.796Z,93532.71
2018-02-03T09:18:29.461Z,93529.84
2018-02-03T09:20:57.088Z,93520.69
2018-02-03T09:23:24.775Z,93511.77
2018-02-03T09:25:52.440Z,93494.56
2018-02-03T09:28:20.097Z,93491.58
2018-02-03T09:30:47.728Z,93457.31
2018-02-03T09:33:15.385Z,93478.64
2018-02-03T09:35:42.987Z,93475.02
2018-02-03T09:38:10.623Z,93485.42
2018-02-03T09:40:38.284Z,93479.17
2018-02-03T09:43:05.820Z,93444.77
2018-02-03T09:45:33.480Z,93407.36
2018-02-03T09:48:01.206Z,93397.94
2018-02-03T09:50:28.926Z,93361.27
2018-02-03T09:52:56.521Z,93392.73
2018-02-03T09:55:24.163Z,93378.41
2018-02-03T09:57:51.769Z,93355.72
2018-02-03T10:00:19.352Z,93342.21
2018-02-03T10:02:46.993Z,93311.78
2018-02-03T10:05:14.599Z,93318.83
2018-02-03T10:07:42.250Z,93268.20
2018-02-03T10:10:10.116Z,93238.05
2018-02-03T10:12:37.647Z,93264.00
2018-02-03T10:15:05.369Z,93310.92
2018-02-03T10:17:32.986Z,93316.84
2018-02-03T10:20:00.600Z,93316.36
2018-02-03T10:22:28.291Z,93337.34
2018-02-03T10:24:55.823Z,93303.27
2018-02-03T10:27:23.583Z,93306.90
2018-02-03T10:29:51.595Z,93336.00
2018-02-03T10:32:19.227Z,93328.16
2018-02-03T10:34:47.138Z,93328.80
2018-02-03T10:37:14.841Z,93326.27
2018-02-03T10:39:42.578Z,93293.86
2018-02-03T10:42:10.135Z,93297.14
2018-02-03T10:44:42.396Z,93346.14
2018-02-03T10:47:10.000Z,93334.42
2018-02-03T10:49:37.660Z,93312.23
2018-02-03T10:52:05.235Z,93322.98
2018-02-03T10:54:32.885Z,93350.53
2018-02-03T10:57:00.548Z,93339.73
2018-02-03T10:59:28.189Z,93311.64
2018-02-03T11:01:56.496Z,93270.28
2018-02-03T11:04:24.193Z,93296.49
2018-02-03T11:06:51.852Z,93321.46
2018-02-03T11:09:19.441Z,93317.02
2018-02-03T11:11:47.092Z,93285.20
2018-02-03T11:14:14.662Z,93255.09
2018-02-03T11:16:42.213Z,93288.50
2018-02-03T11:19:09.766Z,93291.88
2018-02-03T11:21:37.433Z,93311.55
2018-02-03T11:24:05.369Z,93307.05
2018-02-03T11:26:33.373Z,93331.92
2018-02-03T11:29:01.017Z,93309.20
2018-02-03T11:31:28.571Z,93270.02
2018-02-03T11:33:56.316Z,93298.67
2018-02-03T11:36:23.989Z,93332.86
2018-02-03T11:38:51.517Z,93282.92
2018-02-03T11:41:19.170Z,93318.95
2018-02-03T11:43:46.819Z,93293.36
2018-02-03T11:46:14.437Z,93325.30
2018-02-03T11:48:42.074Z,93267.33
2018-02-03T11:51:09.739Z,93295.81
2018-02-03T11:53:37.397Z,93295.11
2018-02-03T11:56:05.015Z,93274.88
2018-02-03T11:58:32.834Z,93277.75
2018-02-03T12:01:00.371Z,93268.10
2018-02-03T12:03:28.086Z,93264.13
2018-02-03T12:05:55.811Z,93246.00
2018-02-03T12:08:23.518Z,93264.64
2018-02-03T12:10:51.258Z,93268.03
2018-02-03T12:13:18.845Z,93260.34
2018-02-03T12:15:46.448Z,93238.56
2018-02-03T12:18:14.100Z,93240.73
2018-02-03T12:20:41.760Z,93293.73
2018-02-03T12:23:09.362Z,93237.67
2018-02-03T12:25:36.962Z,93268.95
2018-02-03T12:28:04.609Z,93266.71
2018-02-03T12:30:32.268Z,93261.80
2018-02-03T12:32:59.871Z,93257.64
2018-02-03T12:35:27.470Z,93243.56
2018-02-03T12:37:55.003Z,93196.37
2018-02-03T12:40:22.537Z,93201.59
2018-02-03T12:42:50.105Z,93196.35
2018-02-03T12:45:17.639Z,93210.16
2018-02-03T12:47:45.388Z,93193.92
2018-02-03T12:50:13.093Z,93158.66
2018-02-03T12:52:40.727Z,93226.23
2018-02-03T12:55:08.263Z,93158.17
2018-02-03T12:57:35.841Z,93227.77
2018-02-03T13:00:03.456Z,93216.57
2018-02-03T13:02:31.132Z,93160.41
2018-02-03T13:04:58.722Z,93213.59
2018-02-03T13:07:26.339Z,93172.94
2018-02-03T13:09:53.945Z,93184.75
2018-02-03T13:12:21.636Z,93182.08
2018-02-03T13:14:49.174Z,93156.61
2018-02-03T13:17:16.710Z,93149.11
2018-02-03T13:19:44.349Z,93166.92
2018-02-03T13:22:11.931Z,93173.98
2018-02-03T13:24:39.486Z,93136.90
2018-02-03T13:27:07.125Z,93128.52
2018-02-03T13:29:34.733Z,93162.23
2018-02-03T13:32:02.263Z,93158.51
2018-02-03T13:34:29.916Z,93160.20
2018-02-03T13:36:57.454Z,93173.91
2018-02-03T13:39:25.028Z,93155.63
2018-02-03T13:41:52.558Z,93189.94
2018-02-03T13:44:20.161Z,93145.64
2018-02-03T13:46:47.864Z,93189.75
2018-02-03T13:49:15.476Z,93184.61
2018-02-03T13:51:43.006Z,93195.53
2018-02-03T13:54:10.672Z,93206.67
2018-02-03T13:56:38.276Z,93179.46
2018-02-03T13:59:05.876Z,93207.17
2018-02-03T14:01:33.513Z,93208.84
2018-02-03T14:04:01.128Z,93226.63
2018-02-03T14:06:28.788Z,93149.56
2018-02-03T14:08:56.363Z,93166.38
2018-02-03T14:11:24.008Z,93162.85
2018-02-03T14:13:51.640Z,93188.57
2018-02-03T14:16:19.331Z,93190.72
2018-02-03T14:18:46.958Z,93200.15
2018-02-03T14:21:14.491Z,93162.87
2018-02-03T14:23:42.140Z,93174.63
2018-02-03T14:26:14.434Z,93191.84
2018-02-03T14:28:42.000Z,93183.09
2018-02-03T14:31:09.652Z,93159.92
2018-02-03T14:33:37.198Z,93192.86
2018-02-03T14:36:04.803Z,93225.34
2018-02-03T14:38:32.384Z,93206.83
2018-02-03T14:41:00.082Z,93228.97
2018-02-03T14:43:27.653Z,93219.81
2018-02-03T14:45:55.308Z,93215.50
2018-02-03T14:48:22.838Z,93197.84
2018-02-03T14:50:50.489Z,93217.97
2018-02-03T14:53:18.144Z,93205.77
2018-02-03T14:55:45.696Z,93187.80
2018-02-03T14:58:13.392Z,93198.75
2018-02-03T15:00:40.994Z,93218.55
2018-02-03T15:03:08.552Z,93235.38
2018-02-03T15:05:36.121Z,93238.88
2018-02-03T15:08:03.654Z,93224.47
2018-02-03T15:10:31.276Z,93274.72
2018-02-03T15:12:58.935Z,93293.20
2018-02-03T15:15:26.466Z,93288.36
2018-02-03T15:17:54.044Z,93289.05
2018-02-03T15:20:21.680Z,93283.52
2018-02-03T15:22:49.335Z,93285.20
2018-02-03T15:25:16.930Z,93307.19
2018-02-03T15:27:44.565Z,93316.70
2018-02-03T15:30:12.176Z,93314.76
2018-02-03T15:32:39.749Z,93303.44
2018-02-03T15:35:07.401Z,93319.86
2018-02-03T15:37:34.995Z,93315.60
2018-02-03T15:40:02.624Z,93317.73
2018-02-03T15:42:30.325Z,93315.91
2018-02-03T15:44:57.855Z,93316.34
2018-02-03T15:47:25.374Z,93321.63
2018-02-03T15:49:53.063Z,93290.95
2018-02-03T15:52:20.668Z,93303.80
2018-02-03T15:54:48.263Z,93278.97
2018-02-03T15:57:15.933Z,93281.38
2018-02-03T15:59:43.458Z,93278.87
2018-02-03T16:02:11.053Z,93287.77
2018-02-03T16:04:38.704Z,93271.84
2018-02-03T16:07:06.412Z,93279.06
2018-02-03T16:09:34.112Z,93271.37
2018-02-03T16:12:01.839Z,93262.96
2018-02-03T16:14:29.496Z,93246.27
2018-02-03T16:16:57.137Z,93250.42
2018-02-03T16:19:24.662Z,93268.94
2018-02-03T16:21:52.312Z,93266.25
2018-02-03T16:24:19.957Z,93278.83
2018-02-03T16:26:47.609Z,93311.34
2018-02-03T16:29:15.249Z,93282.42
2018-02-03T16:31:43.246Z,93287.80
2018-02-03T16:34:10.896Z,93311.59
2018-02-03T16:36:38.490Z,93290.55
2018-02-03T16:39:06.137Z,93302.56
2018-02-03T16:41:33.732Z,93286.73
2018-02-03T16:44:01.324Z,93295.64
2018-02-03T16:46:28.919Z,93277.78
2018-02-03T16:48:56.443Z,93302.55
2018-02-03T16:51:24.068Z,93296.73
2018-02-03T16:53:51.832Z,93268.84
2018-02-03T16:56:31.275Z,93278.34
2018-02-03T16:58:58.976Z,93281.80
2018-02-03T17:01:26.499Z,93241.35
2018-02-03T17:03:54.025Z,93262.37
2018-02-03T17:06:21.712Z,93269.77
2018-02-03T17:08:49.360Z,93249.03
2018-02-03T17:11:17.012Z,93244.91
2018-02-03T17:13:44.698Z,93250.09
2018-02-03T17:16:12.289Z,93248.89
2018-02-03T17:18:39.973Z,93260.03
2018-02-03T17:21:07.608Z,93267.03
2018-02-03T17:23:35.167Z,93237.70
2018-02-03T17:26:02.756Z,93269.23
2018-02-03T17:28:30.460Z,93263.87
2018-02-03T17:30:58.130Z,93203.44
2018-02-03T17:33:25.698Z,93233.03
2018-02-03T17:35:53.279Z,93218.69
2018-02-03T17:38:26.794Z,93223.20
2018-02-03T17:40:54.543Z,93220.62
2018-02-03T17:43:22.185Z,93234.91
2018-02-03T17:48:50.746Z,93210.86
2018-02-03T17:51:18.440Z,93205.45
2018-02-03T17:53:45.991Z,93218.66
2018-02-03T17:56:19.030Z,93218.86
2018-02-03T17:58:46.685Z,93223.77
2018-02-03T18:01:14.353Z,93234.75
2018-02-03T18:03:41.984Z,93238.20
2018-02-03T18:06:09.672Z,93230.02
2018-02-03T18:08:37.305Z,93225.05
2018-02-03T18:11:04.839Z,93215.09
2018-02-03T18:13:32.477Z,93209.49
2018-02-03T18:16:00.145Z,93240.58
2018-02-03T18:18:27.943Z,93207.52
2018-02-03T18:20:56.383Z,93214.69
2018-02-03T18:23:24.060Z,93240.20
2018-02-03T18:25:51.595Z,93236.59
2018-02-03T18:28:19.123Z,93223.75
2018-02-03T18:30:46.844Z,93231.92
2018-02-03T18:33:14.452Z,93238.75
2018-02-03T18:35:42.064Z,93246.39
2018-02-03T18:38:09.634Z,93227.60
2018-02-03T18:40:37.241Z,93210.84
2018-02-03T18:43:04.904Z,93193.34
2018-02-03T18:45:46.908Z,93219.72
2018-02-03T18:48:16.799Z,93244.92
2018-02-03T18:50:44.551Z,93239.21
2018-02-03T18:53:12.212Z,93238.16
2018-02-03T18:55:39.812Z,93240.19
2018-02-03T18:58:07.426Z,93236.64
2018-02-03T19:00:35.078Z,93236.56
2018-02-03T19:03:02.627Z,93216.79
2018-02-03T19:05:30.257Z,93215.25
2018-02-03T19:07:57.826Z,93201.31
2018-02-03T19:10:25.491Z,93213.75
2018-02-03T19:12:53.227Z,93174.75
2018-02-03T19:15:20.875Z,93171.66
2018-02-03T19:17:48.682Z,93168.92
2018-02-03T19:20:16.340Z,93177.23
2018-02-03T19:22:44.009Z,93180.83
2018-02-03T19:25:11.727Z,93195.55
2018-02-03T19:27:39.249Z,93192.16
2018-02-03T19:30:06.897Z,93172.91
2018-02-03T19:32:34.512Z,93170.06
2018-02-03T19:35:02.114Z,93213.77
2018-02-03T19:37:29.751Z,93218.62
2018-02-03T19:39:57.379Z,93231.63
2018-02-03T19:42:25.021Z,93221.97
2018-02-03T19:44:52.695Z,93208.49
2018-02-03T19:47:20.237Z,93197.64
2018-02-03T19:49:47.770Z,93208.81
2018-02-03T19:52:15.339Z,93180.25
2018-02-03T19:54:42.940Z,93147.85
2018-02-03T19:57:10.495Z,93175.76
2018-02-03T19:59:38.160Z,93157.16
2018-02-03T20:02:05.832Z,93165.66
2018-02-03T20:04:33.390Z,93190.09
2018-02-03T20:07:01.040Z,93173.17
2018-02-03T20:09:28.566Z,93171.91
2018-02-03T20:17:00.112Z,93166.66
2018-02-03T20:19:28.828Z,93181.11
2018-02-03T20:21:56.551Z,93171.57
2018-02-03T20:24:24.224Z,93159.49
2018-02-03T20:26:52.470Z,93155.70
2018-02-03T20:29:20.233Z,93168.22
2018-02-03T20:31:47.836Z,93183.05
2018-02-03T20:34:15.543Z,93189.69
2018-02-03T20:36:43.172Z,93212.20
2018-02-03T20:39:10.794Z,93195.20
2018-02-03T20:41:38.485Z,93197.11
2018-02-03T20:44:06.118Z,93175.77
2018-02-03T20:46:33.718Z,93204.73
2018-02-03T20:49:01.307Z,93196.32
2018-02-03T20:51:28.836Z,93239.73
2018-02-03T20:53:56.486Z,93239.80
2018-02-03T20:56:24.120Z,93200.05
2018-02-03T20:58:51.642Z,93198.24
2018-02-03T21:01:19.401Z,93221.77
2018-02-03T21:03:47.004Z,93217.33
2018-02-03T21:06:14.621Z,93231.93
2018-02-03T21:08:42.340Z,93220.86
2018-02-03T21:11:09.980Z,93234.47
2018-02-03T21:13:37.586Z,93244.97
2018-02-03T21:16:05.305Z,93208.20
2018-02-03T21:18:32.905Z,93222.65
2018-02-03T21:21:00.513Z,93198.52
2018-02-03T21:23:28.087Z,93174.02
2018-02-03T21:25:55.813Z,93175.67
2018-02-03T21:28:23.462Z,93170.52
2018-02-03T21:30:51.079Z,93183.09
2018-02-03T21:33:18.604Z,93197.56
2018-02-03T21:35:46.147Z,93180.31
2018-02-03T21:38:13.872Z,93180.63
2018-02-03T21:40:41.404Z,93238.13
2018-02-03T21:43:08.990Z,93222.97
2018-02-03T21:45:36.645Z,93227.44
2018-02-03T21:48:04.252Z,93225.97
2018-02-03T21:50:31.791Z,93246.94
2018-02-03T21:52:59.480Z,93231.78
2018-02-03T21:55:27.343Z,93231.28
2018-02-03T21:57:54.953Z,93239.50
2018-02-03T22:00:22.667Z,93240.00
2018-02-03T22:02:50.373Z,93223.63
2018-02-03T22:05:18.000Z,93234.03
2018-02-03T22:07:45.907Z,93227.09
2018-02-03T22:10:13.683Z,93206.03
2018-02-03T22:12:41.516Z,93208.19
2018-02-03T22:15:09.165Z,93193.22
2018-02-03T22:17:36.851Z,93183.10
2018-02-03T22:20:04.452Z,93146.17
2018-02-03T22:22:32.185Z,93169.17
2018-02-03T22:24:59.800Z,93148.48
2018-02-03T22:27:27.336Z,93165.80
2018-02-03T22:29:54.934Z,93189.41
2018-02-03T22:32:22.553Z,93150.80
2018-02-03T22:34:50.084Z,93188.28
2018-02-03T22:37:17.671Z,93200.75
2018-02-03T22:39:45.320Z,93188.00
2018-02-03T22:42:13.004Z,93178.57
2018-02-03T22:44:40.761Z,93212.27
2018-02-03T22:47:08.349Z,93178.29
2018-02-03T22:49:36.019Z,93160.11
2018-02-03T22:52:03.628Z,93189.94
2018-02-03T22:54:31.277Z,93150.17
2018-02-03T22:56:58.933Z,93189.16
2018-02-03T22:59:26.531Z,93167.55
2018-02-03T23:01:54.054Z,93180.91
2018-02-03T23:04:21.709Z,93166.77
2018-02-03T23:06:49.348Z,93193.47
2018-02-03T23:09:16.960Z,93193.41
2018-02-03T23:11:44.773Z,93206.28
2018-02-03T23:14:12.355Z,93202.28
2018-02-03T23:16:39.971Z,93206.75
2018-02-03T23:19:07.641Z,93205.47
2018-02-03T23:21:35.276Z,93221.18
2018-02-03T23:24:03.140Z,93228.42
2018-02-03T23:26:30.735Z,93236.83
2018-02-03T23:28:58.370Z,93223.52
2018-02-03T23:31:25.964Z,93230.80
2018-02-03T23:33:53.555Z,93250.03
2018-02-03T23:36:21.190Z,93236.73
2018-02-03T23:38:48.817Z,93231.38
2018-02-03T23:41:16.418Z,93217.83
2018-02-03T23:43:44.052Z,93210.14
2018-02-03T23:46:11.928Z,93203.02
2018-02-03T23:48:39.479Z,93177.94
2018-02-03T23:51:07.210Z,93172.91
2018-02-03T23:53:34.733Z,93170.47
2018-02-03T23:56:02.377Z,93191.71
2018-02-03T23:58:30.951Z,93167.82
